createdAt,value
2018-09-02T00:00:33.638Z,1.87
2018-09-02T00:02:38.103Z,1.63
2018-09-02T00:04:42.663Z,1.97
2018-09-02T00:06:47.565Z,2.30
2018-09-02T00:08:52.086Z,2.10
2018-09-02T00:10:56.626Z,2.53
2018-09-02T00:13:01.206Z,2.40
2018-09-02T00:15:05.791Z,1.60
2018-09-02T00:17:10.388Z,2.27
2018-09-02T00:19:15.747Z,1.40
2018-09-02T00:21:20.769Z,1.73
2018-09-02T00:23:25.407Z,2.30
2018-09-02T00:25:29.902Z,2.50
2018-09-02T00:27:34.372Z,2.53
2018-09-02T00:29:38.827Z,2.87
2018-09-02T00:31:43.468Z,3.17
2018-09-02T00:33:48.161Z,3.30
2018-09-02T00:35:52.914Z,3.10
2018-09-02T00:37:58.492Z,3.27
2018-09-02T00:40:03.006Z,2.67
2018-09-02T00:42:07.585Z,3.03
2018-09-02T00:44:13.005Z,3.30
2018-09-02T00:46:17.562Z,3.37
2018-09-02T00:48:22.124Z,2.80
2018-09-02T00:50:27.498Z,3.00
2018-09-02T00:52:32.315Z,3.13
2018-09-02T00:54:37.019Z,3.30
2018-09-02T00:56:41.859Z,3.40
2018-09-02T00:58:46.639Z,2.70
2018-09-02T01:00:51.849Z,3.67
2018-09-02T01:02:56.537Z,3.73
2018-09-02T01:05:01.591Z,2.90
2018-09-02T01:07:06.351Z,1.90
2018-09-02T01:09:10.709Z,1.63
2018-09-02T01:11:15.393Z,2.00
2018-09-02T01:13:19.854Z,2.23
2018-09-02T01:15:24.672Z,2.77
2018-09-02T01:17:29.531Z,3.90
2018-09-02T01:19:34.154Z,3.50
2018-09-02T01:21:39.005Z,3.50
2018-09-02T01:23:44.306Z,3.70
2018-09-02T01:25:48.835Z,3.37
2018-09-02T01:27:53.246Z,2.70
2018-09-02T01:29:58.015Z,2.70
2018-09-02T01:32:02.923Z,2.30
2018-09-02T01:34:07.837Z,1.70
2018-09-02T01:36:12.366Z,1.70
2018-09-02T01:38:17.854Z,2.57
2018-09-02T01:40:22.420Z,2.30
2018-09-02T01:42:27.618Z,2.33
2018-09-02T01:44:32.294Z,2.30
2018-09-02T01:46:50.072Z,2.17
2018-09-02T01:48:55.178Z,2.13
2018-09-02T01:50:59.724Z,3.10
2018-09-02T01:53:04.986Z,3.60
2018-09-02T01:55:09.671Z,3.33
2018-09-02T01:57:14.692Z,4.20
2018-09-02T01:59:19.249Z,3.60
2018-09-02T02:01:24.254Z,3.57
2018-09-02T02:03:28.884Z,3.40
2018-09-02T02:05:33.771Z,2.27
2018-09-02T02:07:38.630Z,2.80
2018-09-02T02:09:43.474Z,2.70
2018-09-02T02:11:48.242Z,2.00
2018-09-02T02:13:53.020Z,1.70
2018-09-02T02:15:58.411Z,2.00
2018-09-02T02:18:03.154Z,2.30
2018-09-02T02:20:07.805Z,2.50
2018-09-02T02:22:12.546Z,2.50
2018-09-02T02:24:17.560Z,2.60
2018-09-02T02:26:22.199Z,3.10
2018-09-02T02:28:26.882Z,2.73
2018-09-02T02:30:31.544Z,3.13
2018-09-02T02:32:36.047Z,3.57
2018-09-02T02:34:40.695Z,3.83
2018-09-02T02:36:45.079Z,3.27
2018-09-02T02:38:49.674Z,4.10
2018-09-02T02:40:54.391Z,3.03
2018-09-02T02:42:58.991Z,4.07
2018-09-02T02:45:03.479Z,4.23
2018-09-02T02:47:07.994Z,3.10
2018-09-02T02:49:12.731Z,3.30
2018-09-02T02:51:17.319Z,3.13
2018-09-02T02:53:21.884Z,2.60
2018-09-02T02:55:26.276Z,3.20
2018-09-02T02:57:31.791Z,3.20
2018-09-02T02:59:36.453Z,4.00
2018-09-02T03:01:41.328Z,3.63
2018-09-02T03:03:47.366Z,3.90
2018-09-02T03:05:52.727Z,3.77
2018-09-02T03:07:57.397Z,3.83
2018-09-02T03:10:02.060Z,3.30
2018-09-02T03:12:06.815Z,3.17
2018-09-02T03:14:11.865Z,3.10
2018-09-02T03:16:17.536Z,3.30
2018-09-02T03:18:22.333Z,2.93
2018-09-02T03:20:27.470Z,1.97
2018-09-02T03:22:32.108Z,1.90
2018-09-02T03:24:36.617Z,3.87
2018-09-02T03:26:41.966Z,3.00
2018-09-02T03:28:47.605Z,3.50
2018-09-02T03:30:52.500Z,4.33
2018-09-02T03:32:56.994Z,3.83
2018-09-02T03:35:01.598Z,4.37
2018-09-02T03:37:06.682Z,3.57
2018-09-02T03:39:11.406Z,2.87
2018-09-02T03:41:16.000Z,2.80
2018-09-02T03:43:21.442Z,3.33
2018-09-02T03:45:26.631Z,3.43
2018-09-02T03:47:31.521Z,5.07
2018-09-02T03:49:36.251Z,4.03
2018-09-02T03:51:41.303Z,3.73
2018-09-02T03:53:45.823Z,2.93
2018-09-02T03:55:50.410Z,3.30
2018-09-02T03:57:54.895Z,3.63
2018-09-02T04:00:00.345Z,3.60
2018-09-02T04:02:05.093Z,4.63
2018-09-02T04:04:09.759Z,4.00
2018-09-02T04:06:15.059Z,2.20
2018-09-02T04:08:20.289Z,2.13
2018-09-02T04:10:25.621Z,4.13
2018-09-02T04:12:30.770Z,4.80
2018-09-02T04:14:35.374Z,4.30
2018-09-02T04:16:39.861Z,4.10
2018-09-02T04:18:44.482Z,3.80
2018-09-02T04:20:49.307Z,3.77
2018-09-02T04:22:54.187Z,3.80
2018-09-02T04:24:59.175Z,4.40
2018-09-02T04:27:03.932Z,4.87
2018-09-02T04:29:08.299Z,4.97
2018-09-02T04:31:12.979Z,4.40
2018-09-02T04:33:17.469Z,4.93
2018-09-02T04:35:22.248Z,5.03
2018-09-02T04:37:26.637Z,5.80
2018-09-02T04:39:31.190Z,6.10
2018-09-02T04:41:35.886Z,5.23
2018-09-02T04:43:40.458Z,5.03
2018-09-02T04:45:44.874Z,4.70
2018-09-02T04:47:49.997Z,5.30
2018-09-02T04:49:54.695Z,5.93
2018-09-02T04:51:59.361Z,6.63
2018-09-02T04:54:04.600Z,5.33
2018-09-02T04:56:08.961Z,4.27
2018-09-02T04:58:14.703Z,4.97
2018-09-02T05:00:19.585Z,5.60
2018-09-02T05:02:23.986Z,5.70
2018-09-02T05:04:28.717Z,5.83
2018-09-02T05:06:33.411Z,5.67
2018-09-02T05:08:39.014Z,5.70
2018-09-02T05:10:44.059Z,5.53
2018-09-02T05:12:48.774Z,4.70
2018-09-02T05:14:54.237Z,5.17
2018-09-02T05:16:58.725Z,5.53
2018-09-02T05:19:03.243Z,6.47
2018-09-02T05:21:07.623Z,5.63
2018-09-02T05:23:12.787Z,5.17
2018-09-02T05:25:17.448Z,5.50
2018-09-02T05:27:23.240Z,6.17
2018-09-02T05:29:28.041Z,6.37
2018-09-02T05:31:32.656Z,5.27
2018-09-02T05:33:37.828Z,6.13
2018-09-02T05:35:42.238Z,6.27
2018-09-02T05:37:47.527Z,4.97
2018-09-02T05:39:52.847Z,5.33
2018-09-02T05:41:57.369Z,4.40
2018-09-02T05:44:02.905Z,4.70
2018-09-02T05:46:07.486Z,4.53
2018-09-02T05:48:12.316Z,4.00
2018-09-02T05:50:16.918Z,4.70
2018-09-02T05:52:21.489Z,5.60
2018-09-02T05:54:25.926Z,5.50
2018-09-02T05:56:30.359Z,5.40
2018-09-02T05:58:34.820Z,5.67
2018-09-02T06:00:39.291Z,6.50
2018-09-02T06:02:44.287Z,6.53
2018-09-02T06:04:49.246Z,6.33
2018-09-02T06:06:53.686Z,4.77
2018-09-02T06:08:58.121Z,7.10
2018-09-02T06:11:02.688Z,6.30
2018-09-02T06:13:07.335Z,7.80
2018-09-02T06:15:11.874Z,6.13
2018-09-02T06:17:16.561Z,7.47
2018-09-02T06:19:21.522Z,7.90
2018-09-02T06:21:26.505Z,9.27
2018-09-02T06:23:31.231Z,8.57
2018-09-02T06:25:36.351Z,8.67
2018-09-02T06:27:41.010Z,6.27
2018-09-02T06:29:45.753Z,9.97
2018-09-02T06:31:50.562Z,10.70
2018-09-02T06:33:55.201Z,10.13
2018-09-02T06:36:00.222Z,6.83
2018-09-02T06:38:04.712Z,5.67
2018-09-02T06:40:10.058Z,8.53
2018-09-02T06:42:14.511Z,9.43
2018-09-02T06:44:19.653Z,7.60
2018-09-02T06:46:24.492Z,11.60
2018-09-02T06:48:29.354Z,8.20
2018-09-02T06:50:33.806Z,10.60
2018-09-02T06:52:38.686Z,6.50
2018-09-02T06:54:43.250Z,6.27
2018-09-02T06:56:47.739Z,6.20
2018-09-02T06:58:52.197Z,5.63
2018-09-02T07:00:56.582Z,7.13
2018-09-02T07:03:01.133Z,9.10
2018-09-02T07:05:05.935Z,6.83
2018-09-02T07:07:10.450Z,10.07
2018-09-02T07:09:15.031Z,8.80
2018-09-02T07:11:19.922Z,8.67
2018-09-02T07:13:24.745Z,7.70
2018-09-02T07:15:29.274Z,7.20
2018-09-02T07:17:33.856Z,11.57
2018-09-02T07:19:38.337Z,7.17
2018-09-02T07:21:43.052Z,6.73
2018-09-02T07:23:48.237Z,7.70
2018-09-02T07:25:52.835Z,6.87
2018-09-02T07:27:57.375Z,7.90
2018-09-02T07:30:01.959Z,5.67
2018-09-02T07:32:06.349Z,6.37
2018-09-02T07:34:10.799Z,7.53
2018-09-02T07:36:15.462Z,6.33
2018-09-02T07:38:20.087Z,7.40
2018-09-02T07:40:24.617Z,13.03
2018-09-02T07:42:29.058Z,11.07
2018-09-02T07:44:33.767Z,6.00
2018-09-02T07:46:38.567Z,7.83
2018-09-02T07:48:43.627Z,7.43
2018-09-02T07:50:48.341Z,7.53
2018-09-02T07:52:52.894Z,6.17
2018-09-02T07:54:57.270Z,6.23
2018-09-02T07:57:02.330Z,9.23
2018-09-02T07:59:07.776Z,5.83
2018-09-02T08:01:12.191Z,9.63
2018-09-02T08:03:17.591Z,7.33
2018-09-02T08:05:22.113Z,8.17
2018-09-02T08:07:27.289Z,6.73
2018-09-02T08:09:31.827Z,7.43
2018-09-02T08:11:36.422Z,5.17
2018-09-02T08:13:40.988Z,5.77
2018-09-02T08:15:51.008Z,6.77
2018-09-02T08:17:55.797Z,5.00
2018-09-02T08:20:00.403Z,5.80
2018-09-02T08:22:05.639Z,8.40
2018-09-02T08:24:10.126Z,7.00
2018-09-02T08:26:15.794Z,5.50
2018-09-02T08:28:20.350Z,6.03
2018-09-02T08:30:24.774Z,5.77
2018-09-02T08:32:29.244Z,5.17
2018-09-02T08:34:33.745Z,5.57
2018-09-02T08:36:38.602Z,5.17
2018-09-02T08:38:43.145Z,5.10
2018-09-02T08:40:47.996Z,4.50
2018-09-02T08:42:52.587Z,5.07
2018-09-02T08:44:57.057Z,4.60
2018-09-02T08:47:02.491Z,4.77
2018-09-02T08:49:07.555Z,5.37
2018-09-02T08:51:11.974Z,4.03
2018-09-02T08:53:16.459Z,5.03
2018-09-02T08:55:21.382Z,4.70
2018-09-02T08:57:26.008Z,4.83
2018-09-02T08:59:30.431Z,4.10
2018-09-02T09:01:34.981Z,4.57
2018-09-02T09:03:39.419Z,3.70
2018-09-02T09:05:43.974Z,4.03
2018-09-02T09:07:48.720Z,4.23
2018-09-02T09:09:54.144Z,3.90
2018-09-02T09:11:58.946Z,4.30
2018-09-02T09:14:03.792Z,4.57
2018-09-02T09:16:08.539Z,3.67
2018-09-02T09:18:13.189Z,4.87
2018-09-02T09:20:37.872Z,4.00
2018-09-02T09:22:44.332Z,3.93
2018-09-02T09:24:48.842Z,3.23
2018-09-02T09:26:53.398Z,3.50
2018-09-02T09:28:57.836Z,3.43
2018-09-02T09:31:03.054Z,3.47
2018-09-02T09:33:08.758Z,3.10
2018-09-02T09:35:13.363Z,3.70
2018-09-02T09:37:18.170Z,3.50
2018-09-02T09:39:24.021Z,3.80
2018-09-02T09:41:28.632Z,2.70
2018-09-02T09:43:33.483Z,3.17
2018-09-02T09:45:38.180Z,2.77
2018-09-02T09:47:42.904Z,3.03
2018-09-02T09:49:47.600Z,2.70
2018-09-02T09:51:52.170Z,2.73
2018-09-02T09:53:56.558Z,2.90
2018-09-02T09:56:01.097Z,2.90
2018-09-02T09:58:06.399Z,2.83
2018-09-02T10:00:10.975Z,3.30
2018-09-02T10:02:15.400Z,3.20
2018-09-02T10:04:19.871Z,2.90
2018-09-02T10:06:24.390Z,2.50
2018-09-02T10:08:29.537Z,2.60
2018-09-02T10:10:34.380Z,2.73
2018-09-02T10:12:39.295Z,3.13
2018-09-02T10:14:44.531Z,2.80
2018-09-02T10:16:49.532Z,3.07
2018-09-02T10:18:55.103Z,3.10
2018-09-02T10:20:59.606Z,2.63
2018-09-02T10:23:04.724Z,2.60
2018-09-02T10:25:09.843Z,2.73
2018-09-02T10:27:14.370Z,2.77
2018-09-02T10:29:19.090Z,2.50
2018-09-02T10:31:23.544Z,2.60
2018-09-02T10:33:28.089Z,2.17
2018-09-02T10:35:32.506Z,2.10
2018-09-02T10:37:36.935Z,2.50
2018-09-02T10:39:42.251Z,2.20
2018-09-02T10:41:46.982Z,2.57
2018-09-02T10:43:51.558Z,2.47
2018-09-02T10:45:56.128Z,2.30
2018-09-02T10:48:00.455Z,2.50
2018-09-02T10:50:05.531Z,2.93
2018-09-02T10:52:10.174Z,2.30
2018-09-02T10:54:14.731Z,2.10
2018-09-02T10:56:19.632Z,2.37
2018-09-02T10:58:24.326Z,2.03
2018-09-02T11:00:28.943Z,2.60
2018-09-02T11:02:33.534Z,2.70
2018-09-02T11:04:38.829Z,2.53
2018-09-02T11:06:43.396Z,2.53
2018-09-02T11:08:47.887Z,2.07
2018-09-02T11:10:52.505Z,2.30
2018-09-02T11:12:57.056Z,2.23
2018-09-02T11:15:01.625Z,1.90
2018-09-02T11:17:06.491Z,2.20
2018-09-02T11:19:11.754Z,2.17
2018-09-02T11:21:16.290Z,2.60
2018-09-02T11:23:20.705Z,2.30
2018-09-02T11:25:25.401Z,2.40
2018-09-02T11:27:29.841Z,2.27
2018-09-02T11:29:34.461Z,2.67
2018-09-02T11:31:38.963Z,2.40
2018-09-02T11:33:43.470Z,2.30
2018-09-02T11:35:48.910Z,2.20
2018-09-02T11:37:53.398Z,2.10
2018-09-02T11:39:58.670Z,2.30
2018-09-02T11:42:03.294Z,2.30
2018-09-02T11:44:08.285Z,2.73
2018-09-02T11:46:12.858Z,2.67
2018-09-02T11:48:17.248Z,2.40
2018-09-02T11:50:21.877Z,2.40
2018-09-02T11:52:27.089Z,2.13
2018-09-02T11:54:31.540Z,2.13
2018-09-02T11:56:36.323Z,2.10
2018-09-02T11:58:40.962Z,1.93
2018-09-02T12:00:45.428Z,1.80
2018-09-02T12:02:50.030Z,2.23
2018-09-02T12:04:54.582Z,2.10
2018-09-02T12:06:59.109Z,2.30
2018-09-02T12:09:04.831Z,2.40
2018-09-02T12:11:09.519Z,2.37
2018-09-02T12:13:14.209Z,2.30
2018-09-02T12:15:19.380Z,2.30
2018-09-02T12:17:23.831Z,2.33
2018-09-02T12:19:28.604Z,2.27
2018-09-02T12:21:33.201Z,2.13
2018-09-02T12:23:37.876Z,1.80
2018-09-02T12:25:42.649Z,2.27
2018-09-02T12:27:47.198Z,2.33
2018-09-02T12:29:51.592Z,2.63
2018-09-02T12:31:56.240Z,2.27
2018-09-02T12:34:00.813Z,2.00
2018-09-02T12:36:05.920Z,2.63
2018-09-02T12:38:10.413Z,2.30
2018-09-02T12:40:15.575Z,1.90
2018-09-02T12:42:20.119Z,2.37
2018-09-02T12:44:25.119Z,1.70
2018-09-02T12:46:29.560Z,2.23
2018-09-02T12:48:34.015Z,2.00
2018-09-02T12:50:38.588Z,2.03
2018-09-02T12:52:43.117Z,1.80
2018-09-02T12:54:47.551Z,2.63
2018-09-02T12:56:52.952Z,2.17
2018-09-02T12:58:58.154Z,2.20
2018-09-02T13:01:03.017Z,2.10
2018-09-02T13:03:07.510Z,2.03
2018-09-02T13:05:12.218Z,1.80
2018-09-02T13:07:16.868Z,2.40
2018-09-02T13:09:21.542Z,2.00
2018-09-02T13:11:26.761Z,2.00
2018-09-02T13:13:31.951Z,2.00
2018-09-02T13:15:36.456Z,2.10
2018-09-02T13:17:40.874Z,1.93
2018-09-02T13:19:45.368Z,2.00
2018-09-02T13:21:49.891Z,2.20
2018-09-02T13:23:55.479Z,2.30
2018-09-02T13:26:00.392Z,2.27
2018-09-02T13:28:04.770Z,2.30
2018-09-02T13:30:11.572Z,2.23
2018-09-02T13:32:16.076Z,2.27
2018-09-02T13:34:20.974Z,1.83
2018-09-02T13:36:25.602Z,2.20
2018-09-02T13:38:30.147Z,2.10
2018-09-02T13:40:34.923Z,2.67
2018-09-02T13:42:39.675Z,2.17
2018-09-02T13:44:45.118Z,1.80
2018-09-02T13:46:50.418Z,2.70
2018-09-02T13:48:55.003Z,2.37
2018-09-02T13:50:59.571Z,2.50
2018-09-02T13:53:04.265Z,2.93
2018-09-02T13:55:08.762Z,2.50
2018-09-02T13:57:13.267Z,2.57
2018-09-02T13:59:17.782Z,2.43
2018-09-02T14:01:22.179Z,2.30
2018-09-02T14:03:26.730Z,2.30
2018-09-02T14:05:31.406Z,2.67
2018-09-02T14:07:36.004Z,2.63
2018-09-02T14:09:40.483Z,2.33
2018-09-02T14:11:44.999Z,2.37
2018-09-02T14:13:49.347Z,1.93
2018-09-02T14:15:53.731Z,2.27
2018-09-02T14:17:58.728Z,3.07
2018-09-02T14:20:03.470Z,2.87
2018-09-02T14:22:08.274Z,2.20
2018-09-02T14:24:13.681Z,2.00
2018-09-02T14:26:19.479Z,2.90
2018-09-02T14:28:24.195Z,2.90
2018-09-02T14:30:28.715Z,2.63
2018-09-02T14:32:33.393Z,2.53
2018-09-02T14:34:38.106Z,2.80
2018-09-02T14:36:42.979Z,2.90
2018-09-02T14:38:48.374Z,2.60
2018-09-02T14:40:54.065Z,2.80
2018-09-02T14:42:59.048Z,2.80
2018-09-02T14:45:03.321Z,2.50
2018-09-02T14:47:08.802Z,2.70
2018-09-02T14:49:13.008Z,2.50
2018-09-02T14:51:17.253Z,2.30
2018-09-02T14:53:21.446Z,3.23
2018-09-02T14:55:25.662Z,2.80
2018-09-02T14:57:30.061Z,2.77
2018-09-02T14:59:34.230Z,2.73
2018-09-02T15:01:38.478Z,2.63
2018-09-02T15:03:42.757Z,2.80
2018-09-02T15:05:46.998Z,2.60
2018-09-02T15:07:51.183Z,3.23
2018-09-02T15:09:55.371Z,3.10
2018-09-02T15:11:59.513Z,2.70
2018-09-02T15:14:03.760Z,2.50
2018-09-02T15:16:08.002Z,2.63
2018-09-02T15:18:12.143Z,2.83
2018-09-02T15:20:16.345Z,2.40
2018-09-02T15:22:20.574Z,2.50
2018-09-02T15:24:24.722Z,2.50
2018-09-02T15:26:28.899Z,2.70
2018-09-02T15:28:33.387Z,2.63
2018-09-02T15:30:37.610Z,2.43
2018-09-02T15:32:41.763Z,2.47
2018-09-02T15:34:46.018Z,2.17
2018-09-02T15:36:50.218Z,2.77
2018-09-02T15:38:54.436Z,2.70
2018-09-02T15:40:58.668Z,2.90
2018-09-02T15:43:02.864Z,2.30
2018-09-02T15:45:07.161Z,2.30
2018-09-02T15:47:11.347Z,2.53
2018-09-02T15:49:15.612Z,2.50
2018-09-02T15:51:19.790Z,2.63
2018-09-02T15:53:24.082Z,2.33
2018-09-02T15:55:28.335Z,2.60
2018-09-02T15:57:32.550Z,2.20
2018-09-02T15:59:37.166Z,2.53
2018-09-02T16:01:41.283Z,2.40
2018-09-02T16:03:45.441Z,2.33
2018-09-02T16:05:50.553Z,2.70
2018-09-02T16:07:54.770Z,2.30
2018-09-02T16:09:59.762Z,2.20
2018-09-02T16:12:03.923Z,2.27
2018-09-02T16:14:08.808Z,2.23
2018-09-02T16:16:13.400Z,2.10
2018-09-02T16:18:17.541Z,2.30
2018-09-02T16:20:21.722Z,2.17
2018-09-02T16:22:26.716Z,2.17
2018-09-02T16:24:30.935Z,2.40
2018-09-02T16:26:35.147Z,2.10
2018-09-02T16:28:39.503Z,2.27
2018-09-02T16:30:43.799Z,2.60
2018-09-02T16:32:48.086Z,2.30
2018-09-02T16:34:52.345Z,2.40
2018-09-02T16:36:56.917Z,2.40
2018-09-02T16:39:01.191Z,2.43
2018-09-02T16:41:05.488Z,2.30
2018-09-02T16:43:09.669Z,2.67
2018-09-02T16:45:13.912Z,2.40
2018-09-02T16:47:18.076Z,2.50
2018-09-02T16:49:22.264Z,2.27
2018-09-02T16:51:26.475Z,2.40
2018-09-02T16:53:30.885Z,2.50
2018-09-02T16:55:35.038Z,2.20
2018-09-02T16:57:39.275Z,2.30
2018-09-02T16:59:43.475Z,2.90
2018-09-02T17:01:47.697Z,2.43
2018-09-02T17:03:55.176Z,2.30
2018-09-02T17:05:59.393Z,2.60
2018-09-02T17:08:03.571Z,2.57
2018-09-02T17:10:07.815Z,2.00
2018-09-02T17:12:12.153Z,2.30
2018-09-02T17:14:16.222Z,1.80
2018-09-02T17:16:20.507Z,2.13
2018-09-02T17:18:24.784Z,2.00
2018-09-02T17:20:35.169Z,2.30
2018-09-02T17:22:39.370Z,2.40
2018-09-02T17:24:43.519Z,2.50
2018-09-02T17:26:47.687Z,2.53
2018-09-02T17:28:51.881Z,2.10
2018-09-02T17:30:56.050Z,2.40
2018-09-02T17:33:00.366Z,2.50
2018-09-02T17:35:04.499Z,2.33
2018-09-02T17:37:08.653Z,2.37
2018-09-02T17:39:13.482Z,2.50
2018-09-02T17:41:17.626Z,2.33
2018-09-02T17:43:21.792Z,2.50
2018-09-02T17:45:26.051Z,2.30
2018-09-02T17:47:31.461Z,2.20
2018-09-02T17:49:35.638Z,2.17
2018-09-02T17:51:39.805Z,2.30
2018-09-02T17:53:43.974Z,2.37
2018-09-02T17:55:48.225Z,2.10
2018-09-02T17:57:52.472Z,2.63
2018-09-02T17:59:56.670Z,2.47
2018-09-02T18:02:00.990Z,2.97
2018-09-02T18:04:05.215Z,3.03
2018-09-02T18:06:09.471Z,2.93
2018-09-02T18:08:13.712Z,2.93
2018-09-02T18:10:18.055Z,3.10
2018-09-02T18:12:22.245Z,3.47
2018-09-02T18:14:26.449Z,3.07
2018-09-02T18:16:30.767Z,3.10
2018-09-02T18:18:35.119Z,3.60
2018-09-02T18:20:39.586Z,3.07
2018-09-02T18:22:43.776Z,2.77
2018-09-02T18:24:47.962Z,3.40
2018-09-02T18:26:52.182Z,3.23
2018-09-02T18:28:56.489Z,3.40
2018-09-02T18:31:00.796Z,3.30
2018-09-02T18:33:05.107Z,3.33
2018-09-02T18:37:37.644Z,3.87
2018-09-02T18:39:42.214Z,3.00
2018-09-02T18:41:46.544Z,3.60
2018-09-02T18:43:51.087Z,4.07
2018-09-02T18:45:55.924Z,4.07
2018-09-02T18:48:00.616Z,3.63
2018-09-02T18:50:05.743Z,3.90
2018-09-02T18:52:11.023Z,3.87
2018-09-02T18:54:15.864Z,3.80
2018-09-02T18:56:21.851Z,3.80
2018-09-02T18:58:28.223Z,4.07
2018-09-02T19:00:33.539Z,3.67
2018-09-02T19:02:38.900Z,3.63
2018-09-02T19:04:44.301Z,3.93
2018-09-02T19:06:49.633Z,3.80
2018-09-02T19:08:55.136Z,4.10
2018-09-02T19:11:00.529Z,3.83
2018-09-02T19:13:06.156Z,4.30
2018-09-02T19:15:12.047Z,3.93
2018-09-02T19:17:17.096Z,4.00
2018-09-02T19:19:22.212Z,3.63
2018-09-02T19:21:27.853Z,4.30
2018-09-02T19:23:33.935Z,3.77
2018-09-02T19:25:38.871Z,4.10
2018-09-02T19:27:43.947Z,3.83
2018-09-02T19:29:49.235Z,3.70
2018-09-02T19:31:53.946Z,3.83
2018-09-02T19:33:59.615Z,4.17
2018-09-02T19:36:05.089Z,4.03
2018-09-02T19:38:10.223Z,4.27
2018-09-02T19:40:15.161Z,3.73
2018-09-02T19:42:20.051Z,3.83
2018-09-02T19:44:24.585Z,3.97
2018-09-02T19:46:29.195Z,3.77
2018-09-02T19:48:33.648Z,4.60
2018-09-02T19:50:37.820Z,4.17
2018-09-02T19:52:42.103Z,3.87
2018-09-02T19:54:46.312Z,4.00
2018-09-02T19:56:50.857Z,4.47
2018-09-02T19:58:55.323Z,4.47
2018-09-02T20:00:59.479Z,4.63
2018-09-02T20:03:03.713Z,4.20
2018-09-02T20:05:07.942Z,4.07
2018-09-02T20:07:12.139Z,4.33
2018-09-02T20:09:16.338Z,3.83
2018-09-02T20:11:20.480Z,4.30
2018-09-02T20:13:24.749Z,4.10
2018-09-02T20:15:28.925Z,4.20
2018-09-02T20:17:33.155Z,3.80
2018-09-02T20:19:37.356Z,3.80
2018-09-02T20:21:41.534Z,3.53
2018-09-02T20:23:45.715Z,3.60
2018-09-02T20:25:50.183Z,3.43
2018-09-02T20:27:54.323Z,3.47
2018-09-02T20:29:58.674Z,3.70
2018-09-02T20:32:02.935Z,3.90
2018-09-02T20:34:07.124Z,3.67
2018-09-02T20:36:11.412Z,3.67
2018-09-02T20:38:15.588Z,4.03
2018-09-02T20:40:19.825Z,4.23
2018-09-02T20:42:24.098Z,4.30
2018-09-02T20:44:28.242Z,4.47
2018-09-02T20:46:32.549Z,4.07
2018-09-02T20:48:44.981Z,4.57
2018-09-02T20:50:49.689Z,3.83
2018-09-02T20:52:54.107Z,4.10
2018-09-02T20:54:58.571Z,3.80
2018-09-02T20:57:04.044Z,4.00
2018-09-02T20:59:08.627Z,4.70
2018-09-02T21:01:12.865Z,4.30
2018-09-02T21:03:17.069Z,4.20
2018-09-02T21:05:21.709Z,3.80
2018-09-02T21:07:25.899Z,4.70
2018-09-02T21:09:30.145Z,4.97
2018-09-02T21:11:34.464Z,4.27
2018-09-02T21:13:38.725Z,4.43
2018-09-02T21:15:42.950Z,5.03
2018-09-02T21:17:47.159Z,4.67
2018-09-02T21:19:51.350Z,5.23
2018-09-02T21:21:55.684Z,4.43
2018-09-02T21:23:59.935Z,5.10
2018-09-02T21:26:04.129Z,4.90
2018-09-02T21:28:08.352Z,4.93
2018-09-02T21:30:12.614Z,5.37
2018-09-02T21:32:16.789Z,5.13
2018-09-02T21:34:21.054Z,5.07
2018-09-02T21:36:25.303Z,5.00
2018-09-02T21:38:29.559Z,5.10
2018-09-02T21:40:33.842Z,5.27
2018-09-02T21:42:38.017Z,5.43
2018-09-02T21:44:42.173Z,5.00
2018-09-02T21:46:46.434Z,5.40
2018-09-02T21:48:50.595Z,4.97
2018-09-02T21:50:54.887Z,5.07
2018-09-02T21:52:59.125Z,4.93
2018-09-02T21:55:03.295Z,5.07
2018-09-02T21:57:07.485Z,5.03
2018-09-02T21:59:11.603Z,5.13
2018-09-02T22:01:15.762Z,4.80
2018-09-02T22:03:20.005Z,5.13
2018-09-02T22:05:24.260Z,5.57
2018-09-02T22:07:28.417Z,5.30
2018-09-02T22:09:32.585Z,5.33
2018-09-02T22:11:36.754Z,5.97
2018-09-02T22:13:41.017Z,5.80
2018-09-02T22:15:45.231Z,5.20
2018-09-02T22:17:49.516Z,7.00
2018-09-02T22:19:53.674Z,5.43
2018-09-02T22:21:57.846Z,5.23
2018-09-02T22:24:02.097Z,5.40
2018-09-02T22:26:06.370Z,6.00
2018-09-02T22:28:10.532Z,5.03
2018-09-02T22:30:14.716Z,4.90
2018-09-02T22:32:18.921Z,5.30
2018-09-02T22:34:23.085Z,4.57
2018-09-02T22:36:27.627Z,5.37
2018-09-02T22:38:31.826Z,4.67
2018-09-02T22:40:36.002Z,4.63
2018-09-02T22:42:40.177Z,4.57
2018-09-02T22:44:44.314Z,4.50
2018-09-02T22:46:48.490Z,5.90
2018-09-02T22:48:52.609Z,4.80
2018-09-02T22:50:56.864Z,5.63
2018-09-02T22:53:01.057Z,4.07
2018-09-02T22:55:05.310Z,4.23
2018-09-02T22:57:09.525Z,5.60
2018-09-02T22:59:13.713Z,4.77
2018-09-02T23:01:17.868Z,5.03
2018-09-02T23:03:22.079Z,4.80
2018-09-02T23:05:26.348Z,4.13
2018-09-02T23:07:30.544Z,4.33
2018-09-02T23:09:34.732Z,4.30
2018-09-02T23:11:38.906Z,4.30
2018-09-02T23:13:43.103Z,4.50
2018-09-02T23:15:47.250Z,4.70
2018-09-02T23:17:51.454Z,4.77
2018-09-02T23:19:56.150Z,4.57
2018-09-02T23:22:00.289Z,4.90
2018-09-02T23:24:04.562Z,5.00
2018-09-02T23:26:08.869Z,5.00
2018-09-02T23:28:13.126Z,4.87
2018-09-02T23:30:17.396Z,3.73
2018-09-02T23:32:21.750Z,5.17
2018-09-02T23:34:25.950Z,4.60
2018-09-02T23:36:30.544Z,4.63
2018-09-02T23:38:34.758Z,4.53
2018-09-02T23:40:38.894Z,3.83
2018-09-02T23:42:43.072Z,4.43
2018-09-02T23:44:47.304Z,4.10
2018-09-02T23:46:51.556Z,3.87
2018-09-02T23:48:55.773Z,4.70
2018-09-02T23:51:00.041Z,3.90
2018-09-02T23:53:04.237Z,5.13
2018-09-02T23:55:08.466Z,5.63
2018-09-02T23:57:12.668Z,5.13
2018-09-02T23:59:16.843Z,5.47
